Time;durP1;ratioP1;P1;durP2;ratioP2;P2;SDS_P1;SDS_P2;PMS_P1;PMS_P2;Temp;Humidity;BMP_temperature;BMP_pressure;BME280_temperature;BME280_humidity;BME280_pressure;Samples;Min_cycle;Max_cycle;Signal;HPM_P1;HPM_P2
2022/06/13 00:01:39;;;;;;;15.13;7.05;;;12.80;99.90;;;;;;4975196;28;20050;-36
2022/06/13 00:04:07;;;;;;;13.65;7.75;;;12.70;99.90;;;;;;4990195;28;20085;-37
2022/06/13 00:06:33;;;;;;;15.00;7.00;;;12.70;99.90;;;;;;4990219;28;20081;-36
2022/06/13 00:08:59;;;;;;;16.38;7.25;;;12.70;99.90;;;;;;4992109;28;20050;-37
2022/06/13 00:11:25;;;;;;;18.45;6.50;;;12.70;99.90;;;;;;4992982;28;20052;-37
2022/06/13 00:13:54;;;;;;;14.32;6.20;;;12.70;99.90;;;;;;4994777;28;20042;-37
2022/06/13 00:16:22;;;;;;;16.63;5.85;;;12.60;99.90;;;;;;4990938;28;20073;-38
2022/06/13 00:18:51;;;;;;;15.55;5.82;;;12.60;99.90;;;;;;4983567;28;20105;-36
2022/06/13 00:21:19;;;;;;;14.10;6.03;;;12.60;99.90;;;;;;4992990;28;20103;-35
2022/06/13 00:23:54;;;;;;;14.75;5.45;;;12.60;99.90;;;;;;4992413;28;20046;-38
2022/06/13 00:28:55;;;;;;;16.95;6.15;;;12.50;99.90;;;;;;5009828;28;20040;-37
2022/06/13 00:31:21;;;;;;;15.85;5.97;;;12.50;99.90;;;;;;4994627;28;20531;-36
2022/06/13 00:33:48;;;;;;;13.65;5.68;;;12.50;99.90;;;;;;4985456;28;20074;-36
2022/06/13 00:36:23;;;;;;;13.57;5.43;;;12.50;99.90;;;;;;4945378;28;20185;-37
2022/06/13 00:38:52;;;;;;;11.93;5.50;;;12.50;99.90;;;;;;4977419;28;20534;-36
2022/06/13 00:41:23;;;;;;;13.50;5.55;;;12.50;99.90;;;;;;4989251;28;20154;-35
2022/06/13 00:43:52;;;;;;;11.98;5.63;;;12.50;99.90;;;;;;4995184;28;20046;-35
2022/06/13 00:46:33;;;;;;;13.50;5.53;;;12.50;99.90;;;;;;4990014;28;20531;-35
2022/06/13 00:49:09;;;;;;;17.27;5.97;;;12.50;99.90;;;;;;4990854;28;20554;-37
2022/06/13 00:51:40;;;;;;;12.25;5.43;;;12.40;99.90;;;;;;4992228;28;20469;-36
2022/06/13 00:54:06;;;;;;;15.25;5.85;;;12.50;99.90;;;;;;4990661;28;20053;-36
2022/06/13 00:56:38;;;;;;;13.43;5.43;;;12.50;99.90;;;;;;4990914;28;20089;-37
2022/06/13 00:59:10;;;;;;;17.98;5.55;;;12.50;99.90;;;;;;4990621;28;20588;-36
2022/06/13 01:01:37;;;;;;;14.27;5.60;;;12.50;99.90;;;;;;4992588;28;20058;-36
2022/06/13 01:04:05;;;;;;;12.65;5.57;;;12.60;99.90;;;;;;4991682;28;20047;-36
2022/06/13 01:06:34;;;;;;;14.18;5.80;;;12.60;99.90;;;;;;4989183;28;20141;-36
2022/06/13 01:09:04;;;;;;;14.48;5.78;;;12.50;99.90;;;;;;5006587;28;20505;-37
2022/06/13 01:11:30;;;;;;;16.83;6.30;;;12.50;99.90;;;;;;4993647;28;20127;-37
2022/06/13 01:14:21;;;;;;;16.55;5.88;;;12.50;99.90;;;;;;5010517;28;20050;-36
2022/06/13 01:17:14;;;;;;;17.48;5.55;;;12.50;99.90;;;;;;4998134;28;20058;-36
2022/06/13 01:20:14;;;;;;;13.20;5.90;;;12.50;99.90;;;;;;4992399;28;20056;-36
2022/06/13 01:22:58;;;;;;;14.55;5.72;;;12.50;99.90;;;;;;5012154;28;20045;-37
2022/06/13 01:25:32;;;;;;;15.75;5.95;;;12.50;99.90;;;;;;5011133;28;20049;-36
2022/06/13 01:28:22;;;;;;;17.08;5.90;;;12.50;99.90;;;;;;5001116;28;20078;-36
2022/06/13 01:31:25;;;;;;;13.23;5.68;;;12.50;99.90;;;;;;5010605;28;20524;-36
2022/06/13 01:34:02;;;;;;;14.35;6.18;;;12.50;99.90;;;;;;5008809;28;20573;-36
2022/06/13 01:36:59;;;;;;;17.42;6.72;;;12.50;99.90;;;;;;5023957;28;20324;-38
2022/06/13 01:39:42;;;;;;;14.43;6.30;;;12.60;99.90;;;;;;5030481;28;20488;-37
2022/06/13 01:42:20;;;;;;;15.02;5.95;;;12.60;99.90;;;;;;5018226;28;20080;-37
2022/06/13 01:44:53;;;;;;;14.18;6.22;;;12.60;99.90;;;;;;4978114;28;20137;-37
2022/06/13 01:47:29;;;;;;;15.93;6.28;;;12.60;99.90;;;;;;5007740;28;20517;-37
2022/06/13 01:50:11;;;;;;;14.45;6.22;;;12.60;99.90;;;;;;5016721;28;20387;-37
2022/06/13 01:52:49;;;;;;;17.50;6.28;;;12.60;99.90;;;;;;5029096;28;20089;-36
2022/06/13 01:55:32;;;;;;;14.70;6.50;;;12.60;99.90;;;;;;5036246;28;20076;-38
2022/06/13 01:58:24;;;;;;;15.55;7.05;;;12.60;99.90;;;;;;5022357;28;20038;-37
2022/06/13 02:01:05;;;;;;;15.63;6.53;;;12.60;99.90;;;;;;4956471;28;20064;-37
2022/06/13 02:03:57;;;;;;;19.17;6.35;;;12.60;99.90;;;;;;5009305;28;20046;-36
2022/06/13 02:06:30;;;;;;;19.90;6.43;;;12.60;99.90;;;;;;4996929;28;20100;-38
2022/06/13 02:09:10;;;;;;;17.13;6.60;;;12.60;99.90;;;;;;5014617;28;20121;-36
2022/06/13 02:11:48;;;;;;;15.38;6.38;;;12.60;99.90;;;;;;5010592;28;20528;-37
2022/06/13 02:14:26;;;;;;;19.13;6.38;;;12.70;99.90;;;;;;5024466;28;20313;-36
2022/06/13 02:17:05;;;;;;;18.75;6.65;;;12.70;99.90;;;;;;5010575;28;20080;-36
2022/06/13 02:19:48;;;;;;;13.93;6.13;;;12.70;99.90;;;;;;5015081;28;20045;-37
2022/06/13 02:22:27;;;;;;;17.38;6.50;;;12.70;99.90;;;;;;5029398;28;20054;-37
2022/06/13 02:25:04;;;;;;;18.02;6.40;;;12.70;99.90;;;;;;5012107;28;20152;-36
2022/06/13 02:27:33;;;;;;;15.70;6.30;;;12.70;99.90;;;;;;4994484;28;20060;-36
2022/06/13 02:30:06;;;;;;;19.17;6.97;;;12.70;99.90;;;;;;4992458;28;20072;-37
2022/06/13 02:33:00;;;;;;;12.75;6.15;;;12.70;99.90;;;;;;5009556;28;20128;-36
2022/06/13 02:35:41;;;;;;;15.90;5.70;;;12.70;99.90;;;;;;5009463;28;20057;-37
2022/06/13 02:38:14;;;;;;;13.60;6.50;;;12.70;99.90;;;;;;5027695;28;20135;-37
2022/06/13 02:41:07;;;;;;;17.02;6.63;;;12.70;99.90;;;;;;5009755;28;20050;-36
2022/06/13 02:43:40;;;;;;;14.48;6.50;;;12.70;99.90;;;;;;4968158;28;20121;-37
2022/06/13 02:46:30;;;;;;;13.52;6.80;;;12.70;99.90;;;;;;5028328;28;20049;-37
2022/06/13 02:49:06;;;;;;;14.88;6.90;;;12.70;99.90;;;;;;5028436;28;20592;-37
2022/06/13 02:52:02;;;;;;;14.32;6.95;;;12.70;99.90;;;;;;5012236;28;20065;-36
2022/06/13 02:54:47;;;;;;;14.27;6.55;;;12.70;99.90;;;;;;5028360;28;20041;-37
2022/06/13 02:57:37;;;;;;;13.48;6.38;;;12.70;99.90;;;;;;5011847;28;20109;-37
2022/06/13 03:00:14;;;;;;;19.30;6.78;;;12.70;99.90;;;;;;5012728;28;20045;-37
2022/06/13 03:02:57;;;;;;;15.13;6.72;;;12.70;99.90;;;;;;4995453;28;20054;-37
2022/06/13 03:05:42;;;;;;;15.82;6.32;;;12.80;99.90;;;;;;5002722;28;20489;-36
2022/06/13 03:08:18;;;;;;;13.38;6.07;;;12.70;99.90;;;;;;4994946;28;20043;-37
2022/06/13 03:11:08;;;;;;;14.90;6.15;;;12.80;99.90;;;;;;5006931;28;20049;-37
2022/06/13 03:13:55;;;;;;;14.57;5.78;;;12.80;99.90;;;;;;5027923;28;20050;-37
2022/06/13 03:16:51;;;;;;;11.50;5.90;;;12.80;99.90;;;;;;5011495;28;20333;-38
2022/06/13 03:19:24;;;;;;;14.10;5.40;;;12.90;99.90;;;;;;5030493;28;20061;-37
2022/06/13 03:21:58;;;;;;;10.73;4.60;;;12.90;99.90;;;;;;5033054;28;20041;-37
2022/06/13 03:24:31;;;;;;;10.88;4.55;;;12.90;99.90;;;;;;5016019;28;20057;-37
2022/06/13 03:27:07;;;;;;;14.02;4.78;;;12.90;99.90;;;;;;5007093;28;20042;-37
2022/06/13 03:29:47;;;;;;;13.15;5.25;;;12.90;99.90;;;;;;5002496;28;20410;-37
2022/06/13 03:32:19;;;;;;;12.40;5.05;;;12.90;99.90;;;;;;5013457;28;20117;-37
2022/06/13 03:34:50;;;;;;;14.30;5.38;;;12.90;99.90;;;;;;5012115;28;20451;-37
2022/06/13 03:37:22;;;;;;;12.10;4.53;;;12.90;99.90;;;;;;4999081;28;20060;-36
2022/06/13 03:39:55;;;;;;;13.40;5.18;;;12.90;99.90;;;;;;5012762;28;20038;-37
2022/06/13 03:42:29;;;;;;;13.02;4.28;;;12.90;99.90;;;;;;5013138;28;20389;-37
2022/06/13 03:45:19;;;;;;;16.65;4.75;;;12.80;99.90;;;;;;5013627;28;20486;-37
2022/06/13 03:47:58;;;;;;;12.63;4.53;;;12.80;99.90;;;;;;5011571;28;20128;-36
2022/06/13 03:50:27;;;;;;;9.73;4.18;;;12.80;99.90;;;;;;5015880;28;20050;-37
2022/06/13 03:53:08;;;;;;;12.75;4.35;;;12.80;99.90;;;;;;5011823;28;20405;-37
2022/06/13 03:55:46;;;;;;;12.90;4.13;;;12.80;99.90;;;;;;5014630;28;20100;-37
2022/06/13 03:58:15;;;;;;;9.90;3.85;;;12.80;99.90;;;;;;4994050;28;20061;-37
2022/06/13 04:00:53;;;;;;;13.63;4.30;;;12.80;99.90;;;;;;5032488;28;20045;-37
2022/06/13 04:03:21;;;;;;;10.57;3.72;;;12.90;99.90;;;;;;5013059;28;20045;-37
2022/06/13 04:05:58;;;;;;;15.57;4.05;;;12.90;99.90;;;;;;5012911;28;20054;-36
2022/06/13 04:08:24;;;;;;;15.50;4.53;;;12.90;99.90;;;;;;5012199;28;20140;-38
2022/06/13 04:11:28;;;;;;;14.48;4.03;;;12.90;99.90;;;;;;5001613;28;20092;-37
2022/06/13 04:14:22;;;;;;;13.48;4.10;;;12.90;99.90;;;;;;4994805;28;20077;-37
2022/06/13 04:17:06;;;;;;;13.07;4.00;;;12.90;99.90;;;;;;5004568;28;20065;-37
2022/06/13 04:19:47;;;;;;;12.15;3.85;;;12.90;99.90;;;;;;5011634;28;20072;-37
2022/06/13 04:22:34;;;;;;;14.60;4.32;;;12.90;99.90;;;;;;5015027;28;20049;-37
2022/06/13 04:25:25;;;;;;;12.00;3.95;;;13.00;99.90;;;;;;4994708;28;20054;-37
2022/06/13 04:27:57;;;;;;;8.57;4.00;;;13.00;99.90;;;;;;5012187;28;20053;-37
2022/06/13 04:30:28;;;;;;;13.23;4.07;;;13.00;99.90;;;;;;5035689;28;20053;-37
2022/06/13 04:33:26;;;;;;;12.68;3.95;;;13.00;99.90;;;;;;5036826;28;20042;-37
2022/06/13 04:36:11;;;;;;;11.35;3.55;;;13.00;99.90;;;;;;5016807;28;20126;-38
2022/06/13 04:38:41;;;;;;;10.95;3.40;;;13.10;99.90;;;;;;5023068;28;20096;-36
2022/06/13 04:41:25;;;;;;;10.23;3.38;;;13.10;99.90;;;;;;5026242;28;20133;-37
2022/06/13 04:43:55;;;;;;;11.30;2.92;;;13.10;99.90;;;;;;5023859;23;20049;-37
2022/06/13 04:46:26;;;;;;;10.55;3.30;;;13.20;99.90;;;;;;4981263;28;20287;-37
2022/06/13 04:48:55;;;;;;;6.85;2.47;;;13.20;99.90;;;;;;4995025;28;20501;-37
2022/06/13 04:51:24;;;;;;;7.13;2.40;;;13.20;99.90;;;;;;4993357;28;20061;-36
2022/06/13 04:54:06;;;;;;;7.85;2.20;;;13.20;99.90;;;;;;4999848;28;20046;-36
2022/06/13 04:56:33;;;;;;;6.07;1.90;;;13.20;99.90;;;;;;4993069;28;20119;-37
2022/06/13 04:59:00;;;;;;;8.10;2.40;;;13.20;99.90;;;;;;4991027;28;20807;-37
2022/06/13 05:01:48;;;;;;;6.40;2.00;;;13.20;99.90;;;;;;5001543;28;20061;-37
2022/06/13 05:04:19;;;;;;;8.20;1.75;;;13.20;99.90;;;;;;4998448;28;20082;-37
2022/06/13 05:06:50;;;;;;;8.05;2.42;;;13.20;99.90;;;;;;4996065;28;20072;-38
2022/06/13 05:09:22;;;;;;;7.20;2.05;;;13.20;99.90;;;;;;5012474;28;20054;-38
2022/06/13 05:12:22;;;;;;;9.57;1.90;;;13.20;99.90;;;;;;5003070;28;20038;-37
2022/06/13 05:15:10;;;;;;;8.07;1.70;;;13.20;99.90;;;;;;4997489;28;20093;-39
2022/06/13 05:18:00;;;;;;;7.07;1.65;;;13.10;99.90;;;;;;4989347;28;20067;-37
2022/06/13 05:20:40;;;;;;;;;;;13.20;99.90;;;;;;4994051;28;20062;-37
2022/06/13 05:23:33;;;;;;;6.03;1.60;;;13.20;99.90;;;;;;4994438;28;19921;-37
2022/06/13 05:26:05;;;;;;;4.00;1.05;;;13.20;99.90;;;;;;4996691;28;20675;-38
2022/06/13 05:28:41;;;;;;;5.13;1.10;;;13.30;99.90;;;;;;4969539;28;20046;-37
2022/06/13 05:31:48;;;;;;;3.05;1.08;;;13.40;99.90;;;;;;4972920;28;20065;-37
2022/06/13 05:34:49;;;;;;;3.88;1.08;;;13.50;99.90;;;;;;4975565;28;20098;-38
2022/06/13 05:37:16;;;;;;;5.35;1.55;;;13.60;99.90;;;;;;4973231;28;20561;-37
2022/06/13 05:39:42;;;;;;;3.40;1.15;;;13.60;99.90;;;;;;4992317;28;20481;-38
2022/06/13 05:42:23;;;;;;;3.60;1.23;;;13.60;99.90;;;;;;4985517;28;20043;-39
2022/06/13 05:44:48;;;;;;;4.20;1.00;;;13.70;99.90;;;;;;4977163;28;20061;-38
2022/06/13 05:47:24;;;;;;;7.30;0.90;;;13.60;99.90;;;;;;4953291;28;20686;-38
2022/06/13 05:50:02;;;;;;;3.35;1.08;;;13.60;99.90;;;;;;4959408;28;20046;-37
2022/06/13 05:52:28;;;;;;;2.78;0.90;;;13.70;99.90;;;;;;4958839;28;20544;-38
2022/06/13 05:54:59;;;;;;;4.88;1.20;;;13.60;99.90;;;;;;4977012;28;20042;-38
2022/06/13 05:57:24;;;;;;;3.05;0.82;;;13.70;99.90;;;;;;4974139;28;20058;-37
2022/06/13 05:59:50;;;;;;;4.75;1.10;;;13.70;99.90;;;;;;4938006;28;20046;-37
2022/06/13 06:02:17;;;;;;;5.22;1.02;;;13.70;99.90;;;;;;4957115;28;20055;-37
2022/06/13 06:04:48;;;;;;;4.40;0.80;;;13.70;99.90;;;;;;4970169;28;20050;-37
2022/06/13 06:07:14;;;;;;;6.68;1.40;;;13.80;99.90;;;;;;4954351;28;20035;-37
2022/06/13 06:09:40;;;;;;;6.20;0.93;;;13.90;99.90;;;;;;4964716;28;20050;-38
2022/06/13 06:12:06;;;;;;;4.65;1.17;;;13.80;99.90;;;;;;4951035;28;20054;-38
2022/06/13 06:14:32;;;;;;;7.82;1.10;;;13.80;99.90;;;;;;4954354;28;20086;-38
2022/06/13 06:16:57;;;;;;;4.75;1.08;;;13.90;99.90;;;;;;4943740;28;20074;-38
2022/06/13 06:19:23;;;;;;;5.60;1.23;;;13.60;99.90;;;;;;4951671;28;20062;-38
2022/06/13 06:21:49;;;;;;;6.28;1.10;;;13.80;99.90;;;;;;4963532;28;20042;-37
2022/06/13 06:24:16;;;;;;;6.57;1.00;;;13.80;99.90;;;;;;4964802;28;20118;-38
2022/06/13 06:26:42;;;;;;;14.02;2.20;;;13.80;99.90;;;;;;4934524;28;20138;-36
2022/06/13 06:29:08;;;;;;;8.07;1.70;;;13.90;99.90;;;;;;4950604;28;20467;-37
2022/06/13 06:31:33;;;;;;;8.23;1.25;;;13.90;99.90;;;;;;4965551;28;20089;-38
2022/06/13 06:33:59;;;;;;;5.40;1.20;;;14.00;99.90;;;;;;4963622;28;20093;-38
2022/06/13 06:36:27;;;;;;;4.85;1.20;;;14.10;99.90;;;;;;4958855;28;20353;-37
2022/06/13 06:38:55;;;;;;;6.97;1.42;;;14.10;99.90;;;;;;4948260;28;20050;-37
2022/06/13 06:41:22;;;;;;;6.15;1.42;;;14.20;99.90;;;;;;4964731;28;20411;-37
2022/06/13 06:43:47;;;;;;;6.63;1.30;;;14.30;99.90;;;;;;4971344;28;20133;-37
2022/06/13 06:46:14;;;;;;;8.48;1.45;;;14.30;99.90;;;;;;4974485;28;20184;-38
2022/06/13 06:48:40;;;;;;;5.57;1.17;;;14.50;99.90;;;;;;4981525;28;20112;-38
2022/06/13 06:51:12;;;;;;;6.22;1.40;;;14.40;99.90;;;;;;4985087;28;20072;-36
2022/06/13 07:01:57;;;;;;;7.20;1.40;;;14.50;99.90;;;;;;4981255;28;20568;-37
2022/06/13 07:04:42;;;;;;;4.15;1.10;;;14.50;99.90;;;;;;4988014;28;20039;-37
2022/06/13 07:07:08;;;;;;;9.43;1.25;;;14.60;99.90;;;;;;4982725;28;20038;-37
2022/06/13 07:09:35;;;;;;;3.35;1.10;;;14.60;99.90;;;;;;4988806;28;20043;-37
2022/06/13 07:12:10;;;;;;;8.32;1.52;;;14.70;99.90;;;;;;4986813;28;20054;-37
2022/06/13 07:14:37;;;;;;;8.57;1.10;;;14.90;99.90;;;;;;4986649;28;20046;-38
2022/06/13 07:17:06;;;;;;;5.15;1.02;;;15.00;99.90;;;;;;4975562;28;20085;-38
2022/06/13 07:19:38;;;;;;;5.47;1.20;;;15.10;99.90;;;;;;4989323;28;20129;-39
2022/06/13 07:22:06;;;;;;;9.77;1.63;;;15.10;99.90;;;;;;4983872;28;20557;-37
2022/06/13 07:24:34;;;;;;;4.65;0.80;;;15.00;99.90;;;;;;4986463;28;20073;-38
2022/06/13 07:27:00;;;;;;;8.18;1.15;;;15.00;99.90;;;;;;4977354;28;20043;-38
2022/06/13 07:29:26;;;;;;;5.65;1.10;;;14.90;99.90;;;;;;4991208;28;20196;-38
2022/06/13 07:32:02;;;;;;;9.88;1.13;;;14.80;99.90;;;;;;4984555;28;20556;-38
2022/06/13 07:34:31;;;;;;;4.15;1.23;;;14.90;99.90;;;;;;4986404;28;20291;-37
2022/06/13 07:37:00;;;;;;;6.78;1.23;;;14.80;99.90;;;;;;4974975;28;20130;-38
2022/06/13 07:39:26;;;;;;;8.38;1.17;;;14.80;99.90;;;;;;4983211;28;20513;-37
2022/06/13 07:41:52;;;;;;;6.13;0.82;;;14.80;99.90;;;;;;4992170;28;20117;-37
2022/06/13 07:44:25;;;;;;;3.83;0.95;;;14.80;99.90;;;;;;4989548;28;20042;-38
2022/06/13 07:46:51;;;;;;;3.75;0.52;;;15.00;99.90;;;;;;4971774;28;20050;-37
2022/06/13 07:49:19;;;;;;;3.75;0.60;;;15.10;99.90;;;;;;4983247;28;20485;-37
2022/06/13 07:51:46;;;;;;;4.05;0.77;;;15.10;99.90;;;;;;4987009;28;20528;-37
2022/06/13 07:54:11;;;;;;;4.72;0.50;;;15.20;99.90;;;;;;4986036;28;20065;-37
2022/06/13 07:56:38;;;;;;;5.57;0.45;;;15.30;99.90;;;;;;4977074;28;20050;-38
2022/06/13 07:59:05;;;;;;;6.78;0.80;;;15.30;99.90;;;;;;4987346;28;20336;-38
2022/06/13 08:01:31;;;;;;;4.55;0.82;;;15.50;99.90;;;;;;4989649;28;20096;-37
2022/06/13 08:03:58;;;;;;;5.72;0.80;;;15.50;99.90;;;;;;4990509;28;20038;-37
2022/06/13 08:06:25;;;;;;;4.38;0.88;;;15.60;99.90;;;;;;4980957;28;20038;-38
2022/06/13 08:08:52;;;;;;;4.03;0.70;;;15.60;99.90;;;;;;4986862;28;20121;-37
2022/06/13 08:11:35;;;;;;;4.35;0.70;;;15.50;99.90;;;;;;4986274;28;20525;-37
2022/06/13 08:14:02;;;;;;;3.72;0.88;;;15.50;99.90;;;;;;4989801;28;20049;-37
2022/06/13 08:16:28;;;;;;;4.68;0.95;;;15.50;99.90;;;;;;4981265;28;20333;-38
2022/06/13 08:18:54;;;;;;;3.15;0.40;;;15.50;99.90;;;;;;4987443;28;20137;-38
2022/06/13 08:21:21;;;;;;;4.57;0.82;;;15.50;99.90;;;;;;4993408;28;20050;-38
2022/06/13 08:23:47;;;;;;;4.05;0.75;;;15.60;99.90;;;;;;4989402;28;20050;-37
2022/06/13 08:26:13;;;;;;;6.03;1.23;;;15.60;99.90;;;;;;4982443;28;20405;-37
2022/06/13 08:28:44;;;;;;;;;;;15.70;99.90;;;;;;4977701;28;20061;-37
2022/06/13 08:31:14;;;;;;;7.18;0.98;;;15.60;99.90;;;;;;4986697;28;20387;-37
2022/06/13 08:33:42;;;;;;;6.63;1.02;;;15.50;99.90;;;;;;4985428;28;20553;-38
2022/06/13 08:36:09;;;;;;;6.70;0.98;;;15.60;99.90;;;;;;4981442;28;20092;-38
2022/06/13 08:38:41;;;;;;;6.28;0.98;;;15.60;99.90;;;;;;4976559;28;20073;-38
2022/06/13 08:41:16;;;;;;;5.22;0.98;;;15.60;99.90;;;;;;4991262;28;20045;-37
2022/06/13 08:44:12;;;;;;;6.38;1.00;;;15.60;99.90;;;;;;4989120;28;20070;-38
2022/06/13 08:46:44;;;;;;;7.18;1.10;;;15.70;99.90;;;;;;4970885;28;20410;-38
2022/06/13 08:49:23;;;;;;;;;;;15.70;99.90;;;;;;4985012;28;20061;-38
2022/06/13 08:52:08;;;;;;;7.45;0.88;;;15.80;99.90;;;;;;4983908;28;20428;-38
2022/06/13 08:54:34;;;;;;;6.50;0.68;;;15.80;99.90;;;;;;4970485;28;20070;-38
2022/06/13 08:57:08;;;;;;;3.88;1.00;;;15.80;99.90;;;;;;4980588;28;20069;-38
2022/06/13 08:59:46;;;;;;;3.92;0.90;;;15.90;99.90;;;;;;4990198;28;20073;-38
2022/06/13 09:02:44;;;;;;;4.85;0.90;;;15.90;99.90;;;;;;4969186;28;20533;-38
2022/06/13 09:05:29;;;;;;;6.65;1.02;;;15.90;99.90;;;;;;4980953;28;20054;-38
2022/06/13 09:08:08;;;;;;;9.05;1.00;;;16.00;99.90;;;;;;4973851;28;20077;-39
2022/06/13 09:10:39;;;;;;;5.72;0.93;;;16.00;99.90;;;;;;4987588;28;20053;-38
2022/06/13 09:13:08;;;;;;;4.90;1.02;;;16.00;99.90;;;;;;4983995;28;20039;-38
2022/06/13 09:15:45;;;;;;;8.30;1.38;;;16.00;99.90;;;;;;4969837;28;20054;-38
2022/06/13 09:18:22;;;;;;;6.70;1.05;;;16.00;99.90;;;;;;4962174;28;20101;-38
2022/06/13 09:21:13;;;;;;;8.07;1.48;;;16.00;99.90;;;;;;4989226;28;20076;-38
2022/06/13 09:24:08;;;;;;;9.07;1.67;;;16.00;99.90;;;;;;4987003;28;20502;-38
2022/06/13 09:26:42;;;;;;;6.85;1.48;;;16.00;99.90;;;;;;4978596;28;20042;-37
2022/06/13 09:29:33;;;;;;;5.45;1.20;;;16.10;99.90;;;;;;4984598;28;20184;-37
2022/06/13 09:32:08;;;;;;;9.63;1.17;;;16.10;99.90;;;;;;4968509;28;20047;-39
2022/06/13 09:34:44;;;;;;;7.63;1.40;;;16.20;99.90;;;;;;4977807;28;20050;-37
2022/06/13 09:37:10;;;;;;;6.45;1.30;;;16.20;99.90;;;;;;4970364;28;20077;-38
2022/06/13 09:39:40;;;;;;;9.80;1.40;;;16.20;99.90;;;;;;4978632;28;20524;-36
2022/06/13 09:42:21;;;;;;;7.90;1.60;;;16.20;99.90;;;;;;4980662;28;20145;-37
2022/06/13 09:45:17;;;;;;;8.90;1.17;;;16.10;99.90;;;;;;4985539;28;20061;-37
2022/06/13 09:47:59;;;;;;;7.88;1.20;;;16.10;99.90;;;;;;4974671;28;20494;-37
2022/06/13 09:51:12;;;;;;;5.78;1.40;;;16.10;99.90;;;;;;4986951;28;20057;-37
2022/06/13 09:53:52;;;;;;;8.27;1.50;;;16.10;99.90;;;;;;4966697;28;20084;-37
2022/06/13 09:56:46;;;;;;;4.53;1.35;;;16.10;99.90;;;;;;4981568;28;20494;-37
2022/06/13 09:59:12;;;;;;;5.65;1.15;;;16.10;99.90;;;;;;4980572;28;20486;-37
2022/06/13 10:01:50;;;;;;;5.70;1.33;;;16.20;99.90;;;;;;4980855;28;20133;-36
2022/06/13 10:04:41;;;;;;;8.40;1.35;;;16.10;99.90;;;;;;4979221;28;20081;-37
2022/06/13 10:07:16;;;;;;;9.80;1.27;;;16.10;99.90;;;;;;4975694;28;20061;-37
2022/06/13 10:09:58;;;;;;;6.57;1.02;;;16.10;99.90;;;;;;4983502;28;20450;-37
2022/06/13 10:12:45;;;;;;;6.07;1.13;;;16.10;99.90;;;;;;4984233;28;20058;-37
2022/06/13 10:15:25;;;;;;;7.70;1.40;;;16.10;99.90;;;;;;4975433;28;20420;-37
2022/06/13 10:18:06;;;;;;;5.47;0.95;;;16.10;99.90;;;;;;4973565;28;20518;-37
2022/06/13 10:20:41;;;;;;;7.57;1.23;;;16.20;99.90;;;;;;4985694;28;20137;-37
2022/06/13 10:23:47;;;;;;;4.05;1.10;;;16.30;99.90;;;;;;4986034;28;20412;-37
2022/06/13 10:26:36;;;;;;;11.60;1.27;;;16.30;99.90;;;;;;4989909;28;20050;-37
2022/06/13 10:29:40;;;;;;;14.15;1.92;;;16.30;99.90;;;;;;4981596;28;20085;-37
2022/06/13 10:32:51;;;;;;;12.68;1.83;;;16.20;99.90;;;;;;4978232;28;20109;-37
2022/06/13 10:35:35;;;;;;;6.32;1.50;;;16.20;99.90;;;;;;4970485;28;20201;-37
2022/06/13 10:38:24;;;;;;;8.48;1.40;;;16.20;99.90;;;;;;4969007;28;20073;-38
2022/06/13 10:40:51;;;;;;;12.43;1.60;;;16.20;99.90;;;;;;4984039;28;20552;-37
2022/06/13 10:43:17;;;;;;;8.35;1.67;;;16.10;99.90;;;;;;4979781;28;20053;-38
2022/06/13 10:45:43;;;;;;;8.48;1.52;;;16.20;99.90;;;;;;4980899;28;20058;-37
2022/06/13 10:48:31;;;;;;;9.93;1.83;;;16.30;99.90;;;;;;4965104;28;20233;-37
2022/06/13 10:50:59;;;;;;;9.18;1.70;;;16.40;99.90;;;;;;4980290;28;20053;-37
2022/06/13 10:53:56;;;;;;;11.27;1.60;;;16.50;99.90;;;;;;4981018;28;20375;-37
2022/06/13 10:56:27;;;;;;;6.80;1.55;;;16.60;99.90;;;;;;4969899;28;20046;-38
2022/06/13 10:58:57;;;;;;;9.05;1.70;;;16.50;99.90;;;;;;4978371;28;20066;-38
2022/06/13 11:01:25;;;;;;;9.18;1.67;;;16.50;99.90;;;;;;4977930;28;20046;-37
2022/06/13 11:04:17;;;;;;;7.63;1.23;;;16.50;99.90;;;;;;4982266;28;20116;-37
2022/06/13 11:06:51;;;;;;;7.00;1.50;;;16.50;99.90;;;;;;4974871;28;20136;-37
2022/06/13 11:09:38;;;;;;;11.50;1.58;;;16.70;99.90;;;;;;4980008;28;20042;-38
2022/06/13 11:12:31;;;;;;;7.70;1.70;;;16.80;99.90;;;;;;4980514;28;20057;-38
2022/06/13 11:23:52;;;;;;;9.73;1.65;;;16.80;99.90;;;;;;4981136;28;20049;-38
2022/06/13 11:28:43;;;;;;;9.30;1.52;;;16.70;99.90;;;;;;5044198;23;20041;-38
2022/06/13 11:31:21;;;;;;;7.13;1.75;;;16.60;99.90;;;;;;5046217;28;20065;-38
2022/06/13 11:33:47;;;;;;;9.18;1.40;;;16.70;99.90;;;;;;5023840;28;20140;-39
2022/06/13 11:36:27;;;;;;;6.80;1.50;;;16.80;99.90;;;;;;5040107;28;20132;-39
2022/06/13 11:39:05;;;;;;;9.07;1.50;;;16.80;99.90;;;;;;5045570;28;20128;-39
2022/06/13 11:41:42;;;;;;;8.73;1.83;;;16.80;99.90;;;;;;5045676;28;20040;-38
2022/06/13 11:44:16;;;;;;;6.68;1.55;;;16.80;99.90;;;;;;5039553;28;20056;-38
2022/06/13 11:46:58;;;;;;;8.80;1.52;;;16.80;99.90;;;;;;5020727;28;20349;-39
2022/06/13 11:49:39;;;;;;;7.43;1.30;;;16.80;99.90;;;;;;5039836;28;20073;-38
2022/06/13 11:52:11;;;;;;;6.78;1.48;;;16.80;99.90;;;;;;5045775;28;20045;-38
2022/06/13 11:54:56;;;;;;;9.48;1.48;;;16.80;99.90;;;;;;5045379;28;20045;-38
2022/06/13 11:57:34;;;;;;;7.10;1.55;;;16.70;99.90;;;;;;5035237;28;20472;-38
2022/06/13 12:00:08;;;;;;;11.30;1.60;;;16.90;99.90;;;;;;5023637;28;20083;-38
2022/06/13 12:02:35;;;;;;;10.23;1.75;;;16.80;99.90;;;;;;5045189;28;20041;-38
2022/06/13 12:05:11;;;;;;;10.82;1.77;;;16.90;99.90;;;;;;5047900;28;20499;-38
2022/06/13 12:07:38;;;;;;;6.65;1.35;;;16.80;99.90;;;;;;5014483;28;20404;-39
2022/06/13 12:10:19;;;;;;;9.73;1.67;;;16.90;99.90;;;;;;5045740;28;20432;-38
2022/06/13 12:12:46;;;;;;;9.43;1.80;;;16.90;99.90;;;;;;5027080;28;20045;-38
2022/06/13 12:15:14;;;;;;;10.60;1.55;;;16.90;99.90;;;;;;5025837;28;20064;-38
2022/06/13 12:17:49;;;;;;;7.13;1.05;;;16.90;99.90;;;;;;5009592;28;20463;-37
2022/06/13 12:20:26;;;;;;;10.60;1.85;;;16.80;99.90;;;;;;5008554;28;20497;-38
2022/06/13 12:23:03;;;;;;;9.50;1.50;;;16.90;99.90;;;;;;5027384;28;20049;-37
2022/06/13 12:25:38;;;;;;;5.50;1.27;;;16.90;99.90;;;;;;5027635;28;20041;-38
2022/06/13 12:28:16;;;;;;;8.48;1.40;;;16.90;99.90;;;;;;4981699;28;20045;-38
2022/06/13 12:31:11;;;;;;;9.73;1.08;;;16.90;99.90;;;;;;5027472;28;20453;-38
2022/06/13 12:34:21;;;;;;;6.88;1.08;;;16.90;99.90;;;;;;5026698;28;20052;-38
2022/06/13 12:37:24;;;;;;;7.85;1.50;;;16.90;99.90;;;;;;4989065;28;20063;-38
2022/06/13 12:39:49;;;;;;;4.75;0.80;;;16.90;99.90;;;;;;5024286;28;20048;-34
2022/06/13 12:42:49;;;;;;;4.13;0.82;;;16.90;99.90;;;;;;5026186;28;20045;-37
2022/06/13 12:45:36;;;;;;;4.93;0.90;;;16.90;99.90;;;;;;5009321;28;21000;-37
2022/06/13 12:48:05;;;;;;;2.90;0.70;;;17.00;99.90;;;;;;5009633;28;20103;-37
2022/06/13 12:50:38;;;;;;;4.18;0.85;;;17.00;99.90;;;;;;5026194;28;20089;-37
2022/06/13 12:53:13;;;;;;;4.47;0.60;;;16.90;99.90;;;;;;5005671;28;20048;-38
2022/06/13 12:55:53;;;;;;;3.95;0.68;;;16.90;99.90;;;;;;5026494;28;20461;-37
2022/06/13 12:58:37;;;;;;;4.57;0.77;;;16.80;99.90;;;;;;5012678;28;20053;-38
2022/06/13 13:01:13;;;;;;;8.55;1.00;;;16.90;99.90;;;;;;5025818;28;20045;-37
2022/06/13 13:03:57;;;;;;;7.05;0.93;;;16.90;99.90;;;;;;5025356;28;20064;-37
2022/06/13 13:06:41;;;;;;;4.28;0.90;;;16.90;99.90;;;;;;5019873;28;20285;-36
2022/06/13 13:09:37;;;;;;;4.63;0.80;;;17.00;99.90;;;;;;5022533;28;20504;-37
2022/06/13 13:12:36;;;;;;;5.57;0.68;;;17.10;99.90;;;;;;5006562;28;20053;-37
2022/06/13 13:15:17;;;;;;;2.17;0.70;;;17.20;99.90;;;;;;5024705;28;20053;-39
2022/06/13 13:18:04;;;;;;;7.28;0.70;;;17.30;99.90;;;;;;5017176;28;20045;-37
2022/06/13 13:20:46;;;;;;;5.40;0.63;;;17.40;99.90;;;;;;5026838;28;20045;-38
2022/06/13 13:23:36;;;;;;;4.22;0.45;;;17.40;99.90;;;;;;5023696;28;20595;-38
2022/06/13 13:26:11;;;;;;;2.75;0.63;;;17.30;99.90;;;;;;5026416;28;20060;-37
2022/06/13 13:29:00;;;;;;;3.05;0.75;;;17.50;99.90;;;;;;4995317;28;20552;-38
2022/06/13 13:31:38;;;;;;;5.93;0.68;;;17.60;99.90;;;;;;5006494;28;20049;-37
2022/06/13 13:34:03;;;;;;;7.03;0.90;;;17.70;99.90;;;;;;5005298;28;20042;-38
2022/06/13 13:36:56;;;;;;;5.10;1.00;;;17.60;99.90;;;;;;4996619;28;20046;-38
2022/06/13 13:39:45;;;;;;;3.83;0.70;;;17.60;99.90;;;;;;5007085;28;20436;-38
2022/06/13 13:42:36;;;;;;;5.05;0.77;;;17.60;99.90;;;;;;5004442;28;20042;-37
2022/06/13 13:45:26;;;;;;;3.90;0.60;;;17.60;99.90;;;;;;5000005;28;20445;-37
2022/06/13 13:47:59;;;;;;;2.57;0.50;;;17.70;99.90;;;;;;4959144;28;20056;-38
2022/06/13 13:50:29;;;;;;;5.18;0.57;;;17.80;99.90;;;;;;4982127;28;20170;-37
2022/06/13 13:53:03;;;;;;;2.60;0.73;;;17.80;99.90;;;;;;4992027;28;20547;-38
2022/06/13 13:55:42;;;;;;;2.78;0.90;;;17.70;99.90;;;;;;4978036;28;20453;-37